sensor_id;sensor_type;location;lat;lon;timestamp;P1;durP1;ratioP1;P2;durP2;ratioP2
51764;SDS011;37835;53.256;6.456;2023-05-17T00:00:06;22.27;;;3.92;;
51764;SDS011;37835;53.256;6.456;2023-05-17T00:02:35;28.40;;;4.22;;
51764;SDS011;37835;53.256;6.456;2023-05-17T00:05:01;27.38;;;3.53;;
51764;SDS011;37835;53.256;6.456;2023-05-17T00:07:27;20.88;;;3.67;;
51764;SDS011;37835;53.256;6.456;2023-05-17T00:09:53;22.10;;;3.55;;
51764;SDS011;37835;53.256;6.456;2023-05-17T00:12:18;28.25;;;4.00;;
51764;SDS011;37835;53.256;6.456;2023-05-17T00:14:44;25.02;;;4.55;;
51764;SDS011;37835;53.256;6.456;2023-05-17T00:17:09;23.52;;;3.78;;
51764;SDS011;37835;53.256;6.456;2023-05-17T00:19:35;22.45;;;3.70;;
51764;SDS011;37835;53.256;6.456;2023-05-17T00:22:01;25.95;;;4.43;;
51764;SDS011;37835;53.256;6.456;2023-05-17T00:24:26;35.17;;;4.60;;
51764;SDS011;37835;53.256;6.456;2023-05-17T00:26:55;28.95;;;4.28;;
51764;SDS011;37835;53.256;6.456;2023-05-17T00:29:20;29.35;;;4.97;;
51764;SDS011;37835;53.256;6.456;2023-05-17T00:31:46;28.35;;;4.38;;
51764;SDS011;37835;53.256;6.456;2023-05-17T00:34:11;29.10;;;3.50;;
51764;SDS011;37835;53.256;6.456;2023-05-17T00:36:37;35.13;;;5.30;;
51764;SDS011;37835;53.256;6.456;2023-05-17T00:39:02;21.63;;;3.50;;
51764;SDS011;37835;53.256;6.456;2023-05-17T00:41:28;30.33;;;3.65;;
51764;SDS011;37835;53.256;6.456;2023-05-17T00:43:53;30.48;;;4.35;;
51764;SDS011;37835;53.256;6.456;2023-05-17T00:46:19;33.72;;;4.10;;
51764;SDS011;37835;53.256;6.456;2023-05-17T00:48:45;28.77;;;3.92;;
51764;SDS011;37835;53.256;6.456;2023-05-17T00:51:10;24.98;;;4.03;;
51764;SDS011;37835;53.256;6.456;2023-05-17T00:53:37;28.05;;;4.18;;
51764;SDS011;37835;53.256;6.456;2023-05-17T00:56:03;27.25;;;4.57;;
51764;SDS011;37835;53.256;6.456;2023-05-17T00:58:29;27.70;;;4.50;;
51764;SDS011;37835;53.256;6.456;2023-05-17T01:00:55;37.25;;;5.75;;
51764;SDS011;37835;53.256;6.456;2023-05-17T01:03:20;36.78;;;5.18;;
51764;SDS011;37835;53.256;6.456;2023-05-17T01:05:46;28.58;;;4.28;;
51764;SDS011;37835;53.256;6.456;2023-05-17T01:08:13;29.58;;;4.47;;
51764;SDS011;37835;53.256;6.456;2023-05-17T01:16:11;30.33;;;3.83;;
51764;SDS011;37835;53.256;6.456;2023-05-17T01:18:43;19.05;;;3.53;;
51764;SDS011;37835;53.256;6.456;2023-05-17T01:21:34;22.65;;;4.15;;
51764;SDS011;37835;53.256;6.456;2023-05-17T01:24:26;24.30;;;3.33;;
51764;SDS011;37835;53.256;6.456;2023-05-17T01:27:03;21.52;;;3.00;;
51764;SDS011;37835;53.256;6.456;2023-05-17T01:29:30;22.80;;;3.17;;
51764;SDS011;37835;53.256;6.456;2023-05-17T01:31:59;27.83;;;3.30;;
51764;SDS011;37835;53.256;6.456;2023-05-17T01:34:27;21.27;;;3.17;;
51764;SDS011;37835;53.256;6.456;2023-05-17T01:36:54;18.98;;;2.53;;
51764;SDS011;37835;53.256;6.456;2023-05-17T01:39:21;17.45;;;2.58;;
51764;SDS011;37835;53.256;6.456;2023-05-17T01:41:51;16.48;;;2.22;;
51764;SDS011;37835;53.256;6.456;2023-05-17T01:44:37;13.57;;;2.55;;
51764;SDS011;37835;53.256;6.456;2023-05-17T01:47:15;12.07;;;2.15;;
51764;SDS011;37835;53.256;6.456;2023-05-17T01:49:45;14.15;;;1.88;;
51764;SDS011;37835;53.256;6.456;2023-05-17T01:52:31;18.20;;;2.72;;
51764;SDS011;37835;53.256;6.456;2023-05-17T01:57:34;11.60;;;2.47;;
51764;SDS011;37835;53.256;6.456;2023-05-17T02:00:03;14.30;;;2.20;;
51764;SDS011;37835;53.256;6.456;2023-05-17T02:02:30;15.05;;;2.53;;
51764;SDS011;37835;53.256;6.456;2023-05-17T02:04:56;20.95;;;2.47;;
51764;SDS011;37835;53.256;6.456;2023-05-17T02:07:22;19.73;;;2.63;;
51764;SDS011;37835;53.256;6.456;2023-05-17T02:09:48;14.68;;;2.00;;
51764;SDS011;37835;53.256;6.456;2023-05-17T02:12:13;15.55;;;2.35;;
51764;SDS011;37835;53.256;6.456;2023-05-17T02:14:39;17.25;;;2.20;;
51764;SDS011;37835;53.256;6.456;2023-05-17T02:17:04;17.00;;;2.28;;
51764;SDS011;37835;53.256;6.456;2023-05-17T02:19:30;15.30;;;2.50;;
51764;SDS011;37835;53.256;6.456;2023-05-17T02:21:56;14.43;;;2.05;;
51764;SDS011;37835;53.256;6.456;2023-05-17T02:24:21;16.25;;;2.60;;
51764;SDS011;37835;53.256;6.456;2023-05-17T02:26:47;11.50;;;1.88;;
51764;SDS011;37835;53.256;6.456;2023-05-17T02:29:13;19.33;;;3.05;;
51764;SDS011;37835;53.256;6.456;2023-05-17T02:31:39;17.98;;;2.63;;
51764;SDS011;37835;53.256;6.456;2023-05-17T02:34:05;24.02;;;2.88;;
51764;SDS011;37835;53.256;6.456;2023-05-17T02:36:30;16.52;;;2.95;;
51764;SDS011;37835;53.256;6.456;2023-05-17T02:38:56;19.35;;;2.38;;
51764;SDS011;37835;53.256;6.456;2023-05-17T02:41:22;17.70;;;2.50;;
51764;SDS011;37835;53.256;6.456;2023-05-17T02:43:47;18.05;;;2.63;;
51764;SDS011;37835;53.256;6.456;2023-05-17T02:46:13;16.92;;;2.20;;
51764;SDS011;37835;53.256;6.456;2023-05-17T02:48:39;15.13;;;2.30;;
51764;SDS011;37835;53.256;6.456;2023-05-17T02:51:05;18.50;;;2.65;;
51764;SDS011;37835;53.256;6.456;2023-05-17T02:53:30;19.55;;;2.85;;
51764;SDS011;37835;53.256;6.456;2023-05-17T02:55:56;20.23;;;2.75;;
51764;SDS011;37835;53.256;6.456;2023-05-17T02:58:22;20.25;;;3.25;;
51764;SDS011;37835;53.256;6.456;2023-05-17T03:00:49;20.70;;;2.80;;
51764;SDS011;37835;53.256;6.456;2023-05-17T03:03:15;15.15;;;2.78;;
51764;SDS011;37835;53.256;6.456;2023-05-17T03:05:40;15.82;;;2.80;;
51764;SDS011;37835;53.256;6.456;2023-05-17T03:08:06;16.15;;;2.33;;
51764;SDS011;37835;53.256;6.456;2023-05-17T03:10:32;17.52;;;2.67;;
51764;SDS011;37835;53.256;6.456;2023-05-17T03:12:57;17.23;;;1.95;;
51764;SDS011;37835;53.256;6.456;2023-05-17T03:15:23;19.90;;;3.40;;
51764;SDS011;37835;53.256;6.456;2023-05-17T03:17:50;12.15;;;2.55;;
51764;SDS011;37835;53.256;6.456;2023-05-17T03:20:16;15.15;;;2.28;;
51764;SDS011;37835;53.256;6.456;2023-05-17T03:22:43;12.75;;;1.77;;
51764;SDS011;37835;53.256;6.456;2023-05-17T03:25:08;14.05;;;2.30;;
51764;SDS011;37835;53.256;6.456;2023-05-17T03:27:34;15.05;;;2.17;;
51764;SDS011;37835;53.256;6.456;2023-05-17T03:29:59;10.43;;;1.70;;
51764;SDS011;37835;53.256;6.456;2023-05-17T03:32:25;14.13;;;2.15;;
51764;SDS011;37835;53.256;6.456;2023-05-17T03:34:52;16.25;;;1.92;;
51764;SDS011;37835;53.256;6.456;2023-05-17T03:37:17;10.65;;;1.98;;
51764;SDS011;37835;53.256;6.456;2023-05-17T03:39:43;10.25;;;1.73;;
51764;SDS011;37835;53.256;6.456;2023-05-17T03:42:08;14.75;;;1.60;;
51764;SDS011;37835;53.256;6.456;2023-05-17T03:44:34;15.13;;;1.80;;
51764;SDS011;37835;53.256;6.456;2023-05-17T03:47:00;18.55;;;2.38;;
51764;SDS011;37835;53.256;6.456;2023-05-17T03:49:25;14.32;;;1.92;;
51764;SDS011;37835;53.256;6.456;2023-05-17T03:51:51;13.45;;;1.77;;
51764;SDS011;37835;53.256;6.456;2023-05-17T03:54:16;8.77;;;1.38;;
51764;SDS011;37835;53.256;6.456;2023-05-17T03:56:42;8.10;;;1.45;;
51764;SDS011;37835;53.256;6.456;2023-05-17T03:59:11;15.27;;;2.10;;
51764;SDS011;37835;53.256;6.456;2023-05-17T04:01:37;14.50;;;2.20;;
51764;SDS011;37835;53.256;6.456;2023-05-17T04:04:03;13.60;;;1.80;;
51764;SDS011;37835;53.256;6.456;2023-05-17T04:06:29;15.75;;;1.58;;
51764;SDS011;37835;53.256;6.456;2023-05-17T04:08:55;9.38;;;1.45;;
51764;SDS011;37835;53.256;6.456;2023-05-17T04:11:23;13.10;;;1.50;;
51764;SDS011;37835;53.256;6.456;2023-05-17T04:13:51;20.15;;;2.30;;
51764;SDS011;37835;53.256;6.456;2023-05-17T04:16:17;8.93;;;1.55;;
51764;SDS011;37835;53.256;6.456;2023-05-17T04:18:43;11.68;;;1.55;;
51764;SDS011;37835;53.256;6.456;2023-05-17T04:21:09;11.82;;;1.80;;
51764;SDS011;37835;53.256;6.456;2023-05-17T04:23:35;11.68;;;1.52;;
51764;SDS011;37835;53.256;6.456;2023-05-17T04:26:01;12.57;;;1.50;;
51764;SDS011;37835;53.256;6.456;2023-05-17T04:28:28;10.48;;;1.40;;
51764;SDS011;37835;53.256;6.456;2023-05-17T04:30:54;11.45;;;1.50;;
51764;SDS011;37835;53.256;6.456;2023-05-17T04:33:20;11.27;;;1.63;;
51764;SDS011;37835;53.256;6.456;2023-05-17T04:35:45;13.68;;;1.83;;
51764;SDS011;37835;53.256;6.456;2023-05-17T04:38:11;9.73;;;1.50;;
51764;SDS011;37835;53.256;6.456;2023-05-17T04:40:37;11.90;;;1.73;;
51764;SDS011;37835;53.256;6.456;2023-05-17T04:43:03;9.10;;;1.70;;
51764;SDS011;37835;53.256;6.456;2023-05-17T04:45:28;10.48;;;1.75;;
51764;SDS011;37835;53.256;6.456;2023-05-17T04:47:54;8.27;;;1.27;;
51764;SDS011;37835;53.256;6.456;2023-05-17T04:50:20;9.82;;;1.42;;
51764;SDS011;37835;53.256;6.456;2023-05-17T04:52:46;17.05;;;2.03;;
51764;SDS011;37835;53.256;6.456;2023-05-17T04:55:12;7.82;;;1.15;;
51764;SDS011;37835;53.256;6.456;2023-05-17T04:57:38;13.30;;;1.58;;
51764;SDS011;37835;53.256;6.456;2023-05-17T05:00:04;6.55;;;1.20;;
51764;SDS011;37835;53.256;6.456;2023-05-17T05:02:31;7.72;;;1.20;;
51764;SDS011;37835;53.256;6.456;2023-05-17T05:04:57;12.55;;;1.77;;
51764;SDS011;37835;53.256;6.456;2023-05-17T05:07:22;16.20;;;2.03;;
51764;SDS011;37835;53.256;6.456;2023-05-17T05:09:48;8.18;;;1.33;;
51764;SDS011;37835;53.256;6.456;2023-05-17T05:12:14;6.03;;;1.30;;
51764;SDS011;37835;53.256;6.456;2023-05-17T05:14:40;9.75;;;1.65;;
51764;SDS011;37835;53.256;6.456;2023-05-17T05:17:05;11.57;;;1.40;;
51764;SDS011;37835;53.256;6.456;2023-05-17T05:19:31;12.63;;;1.92;;
51764;SDS011;37835;53.256;6.456;2023-05-17T05:21:56;12.18;;;1.67;;
51764;SDS011;37835;53.256;6.456;2023-05-17T05:24:22;14.50;;;2.58;;
51764;SDS011;37835;53.256;6.456;2023-05-17T05:26:47;19.15;;;2.55;;
51764;SDS011;37835;53.256;6.456;2023-05-17T05:29:13;16.50;;;2.33;;
51764;SDS011;37835;53.256;6.456;2023-05-17T05:31:39;12.95;;;1.85;;
51764;SDS011;37835;53.256;6.456;2023-05-17T05:34:07;16.98;;;2.30;;
51764;SDS011;37835;53.256;6.456;2023-05-17T05:36:33;17.55;;;2.72;;
51764;SDS011;37835;53.256;6.456;2023-05-17T05:38:58;19.73;;;2.30;;
51764;SDS011;37835;53.256;6.456;2023-05-17T05:41:24;18.15;;;2.83;;
51764;SDS011;37835;53.256;6.456;2023-05-17T05:43:49;13.27;;;2.05;;
51764;SDS011;37835;53.256;6.456;2023-05-17T05:46:15;16.70;;;2.25;;
51764;SDS011;37835;53.256;6.456;2023-05-17T05:48:41;20.33;;;2.47;;
51764;SDS011;37835;53.256;6.456;2023-05-17T05:51:07;15.98;;;2.85;;
51764;SDS011;37835;53.256;6.456;2023-05-17T05:53:33;17.90;;;2.47;;
51764;SDS011;37835;53.256;6.456;2023-05-17T05:55:58;19.15;;;2.60;;
51764;SDS011;37835;53.256;6.456;2023-05-17T05:58:24;12.68;;;2.47;;
51764;SDS011;37835;53.256;6.456;2023-05-17T06:00:49;14.68;;;2.60;;
51764;SDS011;37835;53.256;6.456;2023-05-17T06:03:15;21.35;;;2.58;;
51764;SDS011;37835;53.256;6.456;2023-05-17T06:05:40;16.80;;;2.90;;
51764;SDS011;37835;53.256;6.456;2023-05-17T06:08:06;13.82;;;2.50;;
51764;SDS011;37835;53.256;6.456;2023-05-17T06:10:32;17.02;;;2.70;;
51764;SDS011;37835;53.256;6.456;2023-05-17T06:12:57;17.27;;;2.80;;
51764;SDS011;37835;53.256;6.456;2023-05-17T06:15:23;15.00;;;3.03;;
51764;SDS011;37835;53.256;6.456;2023-05-17T06:17:50;17.65;;;3.03;;
51764;SDS011;37835;53.256;6.456;2023-05-17T06:20:16;17.30;;;2.70;;
51764;SDS011;37835;53.256;6.456;2023-05-17T06:22:42;13.10;;;2.30;;
51764;SDS011;37835;53.256;6.456;2023-05-17T06:25:08;20.50;;;2.92;;
51764;SDS011;37835;53.256;6.456;2023-05-17T06:27:35;17.67;;;2.83;;
51764;SDS011;37835;53.256;6.456;2023-05-17T06:30:01;31.10;;;3.42;;
51764;SDS011;37835;53.256;6.456;2023-05-17T06:32:28;18.13;;;2.63;;
51764;SDS011;37835;53.256;6.456;2023-05-17T06:34:54;14.73;;;2.13;;
51764;SDS011;37835;53.256;6.456;2023-05-17T06:37:21;13.95;;;2.92;;
51764;SDS011;37835;53.256;6.456;2023-05-17T06:39:49;14.90;;;2.35;;
51764;SDS011;37835;53.256;6.456;2023-05-17T06:42:15;22.40;;;2.33;;
51764;SDS011;37835;53.256;6.456;2023-05-17T06:44:41;21.67;;;3.03;;
51764;SDS011;37835;53.256;6.456;2023-05-17T06:47:07;19.20;;;2.47;;
51764;SDS011;37835;53.256;6.456;2023-05-17T06:49:32;16.65;;;2.33;;
51764;SDS011;37835;53.256;6.456;2023-05-17T06:51:58;21.75;;;2.50;;
51764;SDS011;37835;53.256;6.456;2023-05-17T06:54:27;16.65;;;2.33;;
51764;SDS011;37835;53.256;6.456;2023-05-17T06:56:54;15.70;;;2.70;;
51764;SDS011;37835;53.256;6.456;2023-05-17T06:59:23;23.02;;;2.92;;
51764;SDS011;37835;53.256;6.456;2023-05-17T07:01:49;19.77;;;2.97;;
51764;SDS011;37835;53.256;6.456;2023-05-17T07:04:14;16.50;;;2.58;;
51764;SDS011;37835;53.256;6.456;2023-05-17T07:06:40;14.18;;;2.33;;
51764;SDS011;37835;53.256;6.456;2023-05-17T07:09:05;13.10;;;2.28;;
51764;SDS011;37835;53.256;6.456;2023-05-17T07:11:32;14.77;;;2.88;;
51764;SDS011;37835;53.256;6.456;2023-05-17T07:13:57;20.65;;;3.22;;
51764;SDS011;37835;53.256;6.456;2023-05-17T07:16:23;22.48;;;2.97;;
51764;SDS011;37835;53.256;6.456;2023-05-17T07:18:48;21.27;;;2.40;;
51764;SDS011;37835;53.256;6.456;2023-05-17T07:21:14;19.25;;;2.22;;
51764;SDS011;37835;53.256;6.456;2023-05-17T07:23:40;18.75;;;2.72;;
51764;SDS011;37835;53.256;6.456;2023-05-17T07:26:05;12.75;;;2.35;;
51764;SDS011;37835;53.256;6.456;2023-05-17T07:28:31;13.65;;;2.22;;
51764;SDS011;37835;53.256;6.456;2023-05-17T07:30:56;11.55;;;2.30;;
51764;SDS011;37835;53.256;6.456;2023-05-17T07:33:22;19.65;;;2.40;;
51764;SDS011;37835;53.256;6.456;2023-05-17T07:35:48;11.52;;;2.33;;
51764;SDS011;37835;53.256;6.456;2023-05-17T07:38:13;16.73;;;2.60;;
51764;SDS011;37835;53.256;6.456;2023-05-17T07:40:39;17.85;;;2.67;;
51764;SDS011;37835;53.256;6.456;2023-05-17T07:43:04;16.42;;;3.00;;
51764;SDS011;37835;53.256;6.456;2023-05-17T07:45:30;17.83;;;3.30;;
51764;SDS011;37835;53.256;6.456;2023-05-17T07:47:56;13.75;;;2.10;;
51764;SDS011;37835;53.256;6.456;2023-05-17T07:50:21;17.17;;;2.75;;
51764;SDS011;37835;53.256;6.456;2023-05-17T07:52:47;17.30;;;2.22;;
51764;SDS011;37835;53.256;6.456;2023-05-17T07:55:13;25.88;;;3.22;;
51764;SDS011;37835;53.256;6.456;2023-05-17T07:57:38;19.20;;;3.08;;
51764;SDS011;37835;53.256;6.456;2023-05-17T08:00:04;19.92;;;2.75;;
51764;SDS011;37835;53.256;6.456;2023-05-17T08:02:30;15.85;;;2.20;;
51764;SDS011;37835;53.256;6.456;2023-05-17T08:04:56;22.50;;;2.30;;
51764;SDS011;37835;53.256;6.456;2023-05-17T08:07:21;16.83;;;2.25;;
51764;SDS011;37835;53.256;6.456;2023-05-17T08:09:47;13.63;;;2.28;;
51764;SDS011;37835;53.256;6.456;2023-05-17T08:12:12;16.13;;;2.38;;
51764;SDS011;37835;53.256;6.456;2023-05-17T08:14:38;13.38;;;2.28;;
51764;SDS011;37835;53.256;6.456;2023-05-17T08:17:04;15.38;;;2.38;;
51764;SDS011;37835;53.256;6.456;2023-05-17T08:19:29;11.05;;;2.10;;
51764;SDS011;37835;53.256;6.456;2023-05-17T08:21:55;10.55;;;1.95;;
51764;SDS011;37835;53.256;6.456;2023-05-17T08:24:21;11.63;;;2.22;;
51764;SDS011;37835;53.256;6.456;2023-05-17T08:26:46;12.15;;;2.03;;
51764;SDS011;37835;53.256;6.456;2023-05-17T08:29:12;16.08;;;2.50;;
51764;SDS011;37835;53.256;6.456;2023-05-17T08:31:37;12.18;;;1.80;;
51764;SDS011;37835;53.256;6.456;2023-05-17T08:34:03;20.67;;;2.33;;
51764;SDS011;37835;53.256;6.456;2023-05-17T08:36:28;12.52;;;2.35;;
51764;SDS011;37835;53.256;6.456;2023-05-17T08:38:54;12.07;;;1.98;;
51764;SDS011;37835;53.256;6.456;2023-05-17T08:41:20;10.88;;;1.98;;
51764;SDS011;37835;53.256;6.456;2023-05-17T08:43:46;17.48;;;2.20;;
51764;SDS011;37835;53.256;6.456;2023-05-17T08:46:13;14.15;;;1.88;;
51764;SDS011;37835;53.256;6.456;2023-05-17T08:48:40;15.35;;;2.00;;
51764;SDS011;37835;53.256;6.456;2023-05-17T08:51:07;15.02;;;2.13;;
51764;SDS011;37835;53.256;6.456;2023-05-17T08:53:36;11.27;;;1.90;;
51764;SDS011;37835;53.256;6.456;2023-05-17T08:56:02;12.80;;;1.92;;
51764;SDS011;37835;53.256;6.456;2023-05-17T08:58:33;7.30;;;1.52;;
51764;SDS011;37835;53.256;6.456;2023-05-17T09:01:03;8.63;;;2.20;;
51764;SDS011;37835;53.256;6.456;2023-05-17T09:03:31;9.85;;;1.95;;
51764;SDS011;37835;53.256;6.456;2023-05-17T09:05:58;5.72;;;1.60;;
51764;SDS011;37835;53.256;6.456;2023-05-17T09:08:24;10.77;;;1.75;;
51764;SDS011;37835;53.256;6.456;2023-05-17T09:10:51;10.43;;;1.50;;
51764;SDS011;37835;53.256;6.456;2023-05-17T09:13:18;11.50;;;2.15;;
51764;SDS011;37835;53.256;6.456;2023-05-17T09:15:44;9.38;;;2.03;;
51764;SDS011;37835;53.256;6.456;2023-05-17T09:18:12;10.98;;;1.48;;
51764;SDS011;37835;53.256;6.456;2023-05-17T09:20:38;5.32;;;1.30;;
51764;SDS011;37835;53.256;6.456;2023-05-17T09:23:08;9.90;;;1.38;;
51764;SDS011;37835;53.256;6.456;2023-05-17T09:25:37;10.18;;;1.67;;
51764;SDS011;37835;53.256;6.456;2023-05-17T09:28:06;15.65;;;2.30;;
51764;SDS011;37835;53.256;6.456;2023-05-17T09:30:32;10.63;;;2.00;;
51764;SDS011;37835;53.256;6.456;2023-05-17T09:33:05;12.20;;;1.65;;
51764;SDS011;37835;53.256;6.456;2023-05-17T09:35:32;8.63;;;1.70;;
51764;SDS011;37835;53.256;6.456;2023-05-17T09:40:33;8.00;;;1.60;;
51764;SDS011;37835;53.256;6.456;2023-05-17T09:43:03;8.50;;;1.52;;
51764;SDS011;37835;53.256;6.456;2023-05-17T09:45:30;11.63;;;1.92;;
51764;SDS011;37835;53.256;6.456;2023-05-17T09:47:56;11.48;;;1.38;;
51764;SDS011;37835;53.256;6.456;2023-05-17T09:50:23;12.90;;;1.75;;
51764;SDS011;37835;53.256;6.456;2023-05-17T09:52:49;8.85;;;1.38;;
51764;SDS011;37835;53.256;6.456;2023-05-17T09:55:15;7.22;;;1.65;;
51764;SDS011;37835;53.256;6.456;2023-05-17T09:57:41;9.23;;;1.52;;
51764;SDS011;37835;53.256;6.456;2023-05-17T10:00:07;12.02;;;1.50;;
51764;SDS011;37835;53.256;6.456;2023-05-17T10:02:36;9.18;;;1.80;;
51764;SDS011;37835;53.256;6.456;2023-05-17T10:05:06;6.68;;;1.35;;
51764;SDS011;37835;53.256;6.456;2023-05-17T10:07:35;12.55;;;2.13;;
51764;SDS011;37835;53.256;6.456;2023-05-17T10:10:02;9.07;;;1.40;;
51764;SDS011;37835;53.256;6.456;2023-05-17T10:12:29;10.65;;;1.85;;
51764;SDS011;37835;53.256;6.456;2023-05-17T10:15:00;9.63;;;1.50;;
51764;SDS011;37835;53.256;6.456;2023-05-17T10:17:28;7.80;;;1.98;;
51764;SDS011;37835;53.256;6.456;2023-05-17T10:19:56;8.13;;;1.30;;
51764;SDS011;37835;53.256;6.456;2023-05-17T10:22:22;9.07;;;1.85;;
51764;SDS011;37835;53.256;6.456;2023-05-17T10:24:48;8.20;;;1.65;;
51764;SDS011;37835;53.256;6.456;2023-05-17T10:27:15;10.48;;;1.55;;
51764;SDS011;37835;53.256;6.456;2023-05-17T10:29:42;12.25;;;1.95;;
51764;SDS011;37835;53.256;6.456;2023-05-17T10:32:08;13.30;;;1.83;;
51764;SDS011;37835;53.256;6.456;2023-05-17T10:34:38;15.35;;;2.67;;
51764;SDS011;37835;53.256;6.456;2023-05-17T10:37:04;13.55;;;2.42;;
51764;SDS011;37835;53.256;6.456;2023-05-17T10:39:31;11.05;;;1.70;;
51764;SDS011;37835;53.256;6.456;2023-05-17T10:41:59;10.82;;;2.35;;
51764;SDS011;37835;53.256;6.456;2023-05-17T10:44:29;20.90;;;1.85;;
51764;SDS011;37835;53.256;6.456;2023-05-17T10:46:57;11.07;;;2.20;;
51764;SDS011;37835;53.256;6.456;2023-05-17T10:49:30;14.40;;;2.47;;
51764;SDS011;37835;53.256;6.456;2023-05-17T10:51:57;9.73;;;1.73;;
51764;SDS011;37835;53.256;6.456;2023-05-17T10:54:38;12.00;;;2.00;;
51764;SDS011;37835;53.256;6.456;2023-05-17T10:57:06;14.50;;;2.55;;
51764;SDS011;37835;53.256;6.456;2023-05-17T10:59:32;13.75;;;1.85;;
51764;SDS011;37835;53.256;6.456;2023-05-17T11:02:03;8.95;;;1.67;;
51764;SDS011;37835;53.256;6.456;2023-05-17T11:09:40;9.57;;;1.90;;
51764;SDS011;37835;53.256;6.456;2023-05-17T11:12:11;12.95;;;1.95;;
51764;SDS011;37835;53.256;6.456;2023-05-17T11:14:42;14.90;;;1.83;;
51764;SDS011;37835;53.256;6.456;2023-05-17T11:17:14;14.55;;;2.40;;
51764;SDS011;37835;53.256;6.456;2023-05-17T11:19:48;7.43;;;1.27;;
51764;SDS011;37835;53.256;6.456;2023-05-17T11:22:16;11.32;;;2.08;;
51764;SDS011;37835;53.256;6.456;2023-05-17T11:24:43;11.80;;;2.10;;
51764;SDS011;37835;53.256;6.456;2023-05-17T11:27:10;10.25;;;2.30;;
51764;SDS011;37835;53.256;6.456;2023-05-17T11:29:40;8.73;;;1.95;;
51764;SDS011;37835;53.256;6.456;2023-05-17T11:32:09;9.07;;;1.92;;
51764;SDS011;37835;53.256;6.456;2023-05-17T11:34:34;8.63;;;1.95;;
51764;SDS011;37835;53.256;6.456;2023-05-17T11:37:00;6.53;;;1.50;;
51764;SDS011;37835;53.256;6.456;2023-05-17T11:39:28;13.32;;;1.77;;
51764;SDS011;37835;53.256;6.456;2023-05-17T11:41:55;12.40;;;2.13;;
51764;SDS011;37835;53.256;6.456;2023-05-17T11:44:28;10.13;;;2.10;;
51764;SDS011;37835;53.256;6.456;2023-05-17T11:49:29;14.55;;;2.03;;
51764;SDS011;37835;53.256;6.456;2023-05-17T11:51:56;5.28;;;1.65;;
51764;SDS011;37835;53.256;6.456;2023-05-17T11:54:23;10.18;;;1.63;;
51764;SDS011;37835;53.256;6.456;2023-05-17T11:56:49;11.55;;;2.30;;
51764;SDS011;37835;53.256;6.456;2023-05-17T11:59:19;10.93;;;2.15;;
51764;SDS011;37835;53.256;6.456;2023-05-17T12:01:45;8.95;;;1.75;;
51764;SDS011;37835;53.256;6.456;2023-05-17T12:04:11;8.35;;;1.75;;
51764;SDS011;37835;53.256;6.456;2023-05-17T12:06:37;9.00;;;1.75;;
51764;SDS011;37835;53.256;6.456;2023-05-17T12:09:03;10.13;;;1.55;;
51764;SDS011;37835;53.256;6.456;2023-05-17T12:11:34;11.93;;;2.13;;
51764;SDS011;37835;53.256;6.456;2023-05-17T12:14:01;9.93;;;1.65;;
51764;SDS011;37835;53.256;6.456;2023-05-17T12:16:26;14.43;;;2.28;;
51764;SDS011;37835;53.256;6.456;2023-05-17T12:18:53;9.43;;;2.03;;
51764;SDS011;37835;53.256;6.456;2023-05-17T12:21:20;11.50;;;2.20;;
51764;SDS011;37835;53.256;6.456;2023-05-17T12:23:47;7.38;;;1.85;;
51764;SDS011;37835;53.256;6.456;2023-05-17T12:26:15;14.65;;;2.38;;
51764;SDS011;37835;53.256;6.456;2023-05-17T12:28:53;10.68;;;2.03;;
51764;SDS011;37835;53.256;6.456;2023-05-17T12:31:21;15.65;;;2.20;;
51764;SDS011;37835;53.256;6.456;2023-05-17T12:33:55;6.90;;;1.65;;
51764;SDS011;37835;53.256;6.456;2023-05-17T12:36:23;8.80;;;1.70;;
51764;SDS011;37835;53.256;6.456;2023-05-17T12:38:49;11.50;;;1.90;;
51764;SDS011;37835;53.256;6.456;2023-05-17T12:41:16;7.20;;;1.70;;
51764;SDS011;37835;53.256;6.456;2023-05-17T12:43:43;10.80;;;1.90;;
51764;SDS011;37835;53.256;6.456;2023-05-17T12:46:13;20.30;;;2.28;;
51764;SDS011;37835;53.256;6.456;2023-05-17T12:48:43;15.43;;;1.70;;
51764;SDS011;37835;53.256;6.456;2023-05-17T12:53:39;13.00;;;2.10;;
51764;SDS011;37835;53.256;6.456;2023-05-17T12:56:13;9.30;;;1.73;;
51764;SDS011;37835;53.256;6.456;2023-05-17T12:58:41;5.53;;;1.50;;
51764;SDS011;37835;53.256;6.456;2023-05-17T13:01:07;6.82;;;1.60;;
51764;SDS011;37835;53.256;6.456;2023-05-17T13:03:37;7.28;;;1.40;;
51764;SDS011;37835;53.256;6.456;2023-05-17T13:06:04;10.82;;;1.75;;
51764;SDS011;37835;53.256;6.456;2023-05-17T13:08:31;8.48;;;1.67;;
51764;SDS011;37835;53.256;6.456;2023-05-17T13:11:08;10.73;;;1.67;;
51764;SDS011;37835;53.256;6.456;2023-05-17T13:13:37;7.45;;;1.77;;
51764;SDS011;37835;53.256;6.456;2023-05-17T13:16:04;9.02;;;2.00;;
51764;SDS011;37835;53.256;6.456;2023-05-17T13:18:30;10.70;;;1.85;;
51764;SDS011;37835;53.256;6.456;2023-05-17T13:20:59;7.68;;;2.03;;
51764;SDS011;37835;53.256;6.456;2023-05-17T13:23:25;9.43;;;1.42;;
51764;SDS011;37835;53.256;6.456;2023-05-17T13:25:51;15.75;;;2.10;;
51764;SDS011;37835;53.256;6.456;2023-05-17T13:28:18;7.30;;;1.50;;
51764;SDS011;37835;53.256;6.456;2023-05-17T13:30:43;8.88;;;1.40;;
51764;SDS011;37835;53.256;6.456;2023-05-17T13:33:15;8.93;;;2.17;;
51764;SDS011;37835;53.256;6.456;2023-05-17T13:35:41;6.72;;;1.30;;
51764;SDS011;37835;53.256;6.456;2023-05-17T13:38:07;7.40;;;1.60;;
51764;SDS011;37835;53.256;6.456;2023-05-17T13:40:32;7.78;;;2.00;;
51764;SDS011;37835;53.256;6.456;2023-05-17T13:42:58;12.95;;;1.60;;
51764;SDS011;37835;53.256;6.456;2023-05-17T13:45:24;6.40;;;1.40;;
51764;SDS011;37835;53.256;6.456;2023-05-17T13:47:49;7.05;;;1.65;;
51764;SDS011;37835;53.256;6.456;2023-05-17T13:50:15;10.60;;;1.65;;
51764;SDS011;37835;53.256;6.456;2023-05-17T13:52:41;8.23;;;1.70;;
51764;SDS011;37835;53.256;6.456;2023-05-17T13:55:07;6.00;;;1.17;;
51764;SDS011;37835;53.256;6.456;2023-05-17T13:57:33;10.43;;;1.42;;
51764;SDS011;37835;53.256;6.456;2023-05-17T13:59:59;6.47;;;1.38;;
51764;SDS011;37835;53.256;6.456;2023-05-17T14:02:24;10.38;;;1.60;;
51764;SDS011;37835;53.256;6.456;2023-05-17T14:04:50;6.18;;;1.60;;
51764;SDS011;37835;53.256;6.456;2023-05-17T14:07:15;11.73;;;1.67;;
51764;SDS011;37835;53.256;6.456;2023-05-17T14:09:41;10.05;;;1.67;;
51764;SDS011;37835;53.256;6.456;2023-05-17T14:12:07;9.20;;;1.63;;
51764;SDS011;37835;53.256;6.456;2023-05-17T14:14:33;14.98;;;1.80;;
51764;SDS011;37835;53.256;6.456;2023-05-17T14:16:58;11.38;;;2.13;;
51764;SDS011;37835;53.256;6.456;2023-05-17T14:19:25;6.07;;;1.48;;
51764;SDS011;37835;53.256;6.456;2023-05-17T14:21:51;6.13;;;1.30;;
51764;SDS011;37835;53.256;6.456;2023-05-17T14:24:16;9.40;;;1.95;;
51764;SDS011;37835;53.256;6.456;2023-05-17T14:26:42;8.48;;;1.58;;
51764;SDS011;37835;53.256;6.456;2023-05-17T14:29:08;11.43;;;2.47;;
51764;SDS011;37835;53.256;6.456;2023-05-17T14:31:34;5.88;;;1.35;;
51764;SDS011;37835;53.256;6.456;2023-05-17T14:33:59;6.70;;;1.63;;
51764;SDS011;37835;53.256;6.456;2023-05-17T14:36:27;4.10;;;1.30;;
51764;SDS011;37835;53.256;6.456;2023-05-17T14:38:52;9.65;;;2.00;;
51764;SDS011;37835;53.256;6.456;2023-05-17T14:41:18;10.02;;;1.83;;
51764;SDS011;37835;53.256;6.456;2023-05-17T14:43:44;6.07;;;1.50;;
51764;SDS011;37835;53.256;6.456;2023-05-17T14:46:09;7.07;;;1.30;;
51764;SDS011;37835;53.256;6.456;2023-05-17T14:48:35;14.80;;;1.80;;
51764;SDS011;37835;53.256;6.456;2023-05-17T14:51:01;7.50;;;1.70;;
51764;SDS011;37835;53.256;6.456;2023-05-17T14:53:28;7.45;;;1.35;;
51764;SDS011;37835;53.256;6.456;2023-05-17T14:55:54;8.35;;;1.75;;